Flag for USA

Past Weather in 33°57'54"N, 118°03'33"W, USA — Yesterday and Last 2 Weeks

Currently: 75 °F. Sunny. (Weather station: Los Angeles / USC Campus Downtown, USA). See more current weather

Past Weather in 33°57'54"N, 118°03'33"W — Graph

°F

33°57'54"N, 118°03'33"W Temperature Yesterday

Maximum temperature yesterday: 76 °F (at 12:52 pm)
Minimum temperature yesterday: 59 °F (at 3:56 am)
Average temperature yesterday: 66 °F

High & Low Weather Summary for the Past Weeks

 TemperatureHumidityPressure
High93 °F (Sep 5, 12:52 pm)94% (Sep 8, 6:52 am)30.07 "Hg (Sep 8, 6:52 am)
Low59 °F (Sep 13, 6:02 am)12% (Sep 15, 11:52 am)29.77 "Hg (Sep 8, 5:52 pm)
Average69 °F72%29.90 "Hg
* Reported Sep 5 9:52 am — Sep 20 9:52 am, 33°57'54"N, 118°03'33"W. Weather by CustomWeather, © 2021

Note: Actual official high and low records may vary slightly from our data, if they occured in-between our weather recording intervals... More about our weather records

33°57'54"N, 118°03'33"W Weather History for the Previous 24 Hours

Scroll right to see more
 ConditionsComfort  
Time TempWeatherWind HumidityBarometerVisibility
9:52 am
Mon, Sep 20
70 °FSunny.No wind68%29.92 "Hg7 mi
8:52 am66 °FSunny.No wind78%29.91 "Hg8 mi
7:55 am64 °FHaze.No wind81%29.91 "Hg6 mi
6:52 am62 °FFog.No wind90%29.89 "Hg4 mi
5:52 am63 °FFog.No wind87%29.88 "Hg5 mi
5:31 am63 °FFog.No wind87%29.88 "Hg5 mi
4:52 am63 °FFog.No wind87%29.87 "Hg4 mi
3:52 am63 °FClear.No wind84%29.87 "Hg9 mi
2:52 am62 °FClear.No wind86%29.88 "Hg10 mi
1:52 am63 °FClear.No wind84%29.88 "Hg10 mi
12:52 am63 °FClear.No wind84%29.88 "Hg9 mi
11:52 pm
Sun, Sep 19
64 °FClear.No wind84%29.88 "Hg10 mi
10:52 pm64 °FClear.No wind84%29.89 "Hg10 mi
9:52 pm64 °FClear.No wind84%29.90 "Hg10 mi
8:52 pm66 °FClear.No wind78%29.89 "Hg10 mi
7:52 pm66 °FClear.No wind75%29.88 "Hg10 mi
6:52 pm68 °FSunny.3 mph70%29.88 "Hg10 mi
5:52 pm70 °FSunny.5 mph66%29.88 "Hg10 mi
4:52 pm72 °FSunny.3 mph61%29.89 "Hg10 mi
3:52 pm73 °FSunny.No wind59%29.89 "Hg10 mi
2:52 pm74 °FSunny.3 mph57%29.91 "Hg10 mi
1:52 pm74 °FSunny.No wind57%29.93 "Hg10 mi
12:52 pm76 °FSunny.No wind48%29.94 "Hg10 mi
11:52 am74 °FSunny.No wind53%29.96 "Hg9 mi
Weather by CustomWeather, © 2021

See weather overview